Time;durP1;ratioP1;P1;durP2;ratioP2;P2;SDS_P1;SDS_P2;PMS_P1;PMS_P2;Temp;Humidity;BMP_temperature;BMP_pressure;BME280_temperature;BME280_humidity;BME280_pressure;Samples;Min_cycle;Max_cycle;Signal;HPM_P1;HPM_P2
2023/06/08 03:29:01;;;;;;;16.90;16.03;;;15.50;99.90;;;;;;6054565;23;20419;31
2023/06/08 03:31:36;;;;;;;18.20;17.10;;;15.50;99.90;;;;;;4930134;29;20963;-74
2023/06/08 03:34:03;;;;;;;18.17;17.23;;;15.50;99.90;;;;;;4932761;29;20825;-77
2023/06/08 03:36:33;;;;;;;18.47;17.17;;;15.40;99.90;;;;;;4932439;29;20881;-77
2023/06/08 03:39:01;;;;;;;16.83;16.03;;;15.40;99.90;;;;;;4938088;28;20568;-76
2023/06/08 03:41:27;;;;;;;17.40;16.20;;;15.40;99.90;;;;;;4941223;29;20532;-73
2023/06/08 03:43:55;;;;;;;17.70;16.70;;;15.50;99.90;;;;;;4942444;28;20571;-74
2023/06/08 03:46:22;;;;;;;17.70;16.70;;;15.50;99.90;;;;;;4941280;29;20541;-75
2023/06/08 03:48:50;;;;;;;17.60;16.60;;;15.50;99.90;;;;;;4941301;28;20453;-75
2023/06/08 03:51:19;;;;;;;17.23;15.90;;;15.70;99.90;;;;;;4942170;28;20441;-74
2023/06/08 03:53:46;;;;;;;15.83;15.13;;;15.50;99.90;;;;;;4941257;28;20540;-75
2023/06/08 03:56:13;;;;;;;17.43;16.53;;;15.50;99.90;;;;;;4940575;29;20436;-77
2023/06/08 03:58:41;;;;;;;15.40;14.70;;;15.50;99.90;;;;;;4937949;28;20481;-75
2023/06/08 04:01:09;;;;;;;16.73;15.93;;;15.50;99.90;;;;;;4941274;28;20448;-80
2023/06/08 04:03:36;;;;;;;17.40;16.23;;;15.40;99.90;;;;;;4934617;29;20446;-79
2023/06/08 04:06:05;;;;;;;17.87;16.90;;;15.40;99.90;;;;;;4940459;29;20465;-76
2023/06/08 04:08:32;;;;;;;16.43;15.63;;;15.40;99.90;;;;;;4937756;29;20936;-76
2023/06/08 04:10:59;;;;;;;16.10;15.30;;;15.50;99.90;;;;;;4941575;28;20769;-78
2023/06/08 04:13:26;;;;;;;16.40;15.70;;;15.50;99.90;;;;;;4942104;29;20473;-77
2023/06/08 04:15:53;;;;;;;15.83;15.00;;;15.40;99.90;;;;;;4940616;28;20493;-78
2023/06/08 04:18:21;;;;;;;17.40;16.50;;;15.70;99.90;;;;;;4940911;28;20480;-79
2023/06/08 04:20:48;;;;;;;17.10;15.80;;;15.70;99.90;;;;;;4942289;28;20467;-79
2023/06/08 04:23:16;;;;;;;16.50;15.60;;;15.80;99.90;;;;;;4940549;29;20533;-79
2023/06/08 04:25:43;;;;;;;16.30;15.20;;;15.80;99.90;;;;;;4940436;28;20463;-78
2023/06/08 04:28:09;;;;;;;16.67;15.87;;;15.90;99.90;;;;;;4939220;29;20453;-78
2023/06/08 04:30:36;;;;;;;15.80;15.10;;;16.10;99.90;;;;;;4931600;29;20536;-76
2023/06/08 04:33:03;;;;;;;16.03;15.23;;;15.80;99.90;;;;;;4931257;29;20442;-79
2023/06/08 04:35:31;;;;;;;16.63;15.83;;;16.00;99.90;;;;;;4931442;29;20656;-80
2023/06/08 04:37:58;;;;;;;16.80;16.00;;;16.00;99.90;;;;;;4932107;29;20493;-80
2023/06/08 04:40:26;;;;;;;16.40;15.60;;;16.30;99.90;;;;;;4931478;29;20877;-75
2023/06/08 04:42:53;;;;;;;16.63;15.83;;;16.30;99.90;;;;;;4926614;29;20542;-77
2023/06/08 04:45:20;;;;;;;16.60;15.60;;;16.50;99.90;;;;;;4931757;29;20742;-78
2023/06/08 04:47:47;;;;;;;16.50;15.67;;;16.50;99.90;;;;;;4931651;29;20468;-80
2023/06/08 04:50:14;;;;;;;16.83;15.83;;;16.50;99.90;;;;;;4931727;29;20931;-80
2023/06/08 04:52:41;;;;;;;17.53;16.40;;;16.60;99.90;;;;;;4931666;29;20457;-76
2023/06/08 04:55:09;;;;;;;16.07;15.17;;;16.90;99.90;;;;;;4931529;29;20560;-75
2023/06/08 04:57:37;;;;;;;15.27;14.47;;;17.20;99.90;;;;;;4931007;29;20485;-79
2023/06/08 05:00:07;;;;;;;15.63;14.83;;;17.30;99.90;;;;;;4931057;29;20457;-79
2023/06/08 05:02:34;;;;;;;15.73;15.03;;;17.60;99.90;;;;;;4931802;29;20966;-80
2023/06/08 05:05:01;;;;;;;15.77;15.00;;;18.00;99.90;;;;;;4926342;29;20548;-79
2023/06/08 05:07:28;;;;;;;15.40;14.70;;;18.20;99.90;;;;;;4931294;29;20457;-79
2023/06/08 05:09:56;;;;;;;15.80;14.90;;;18.80;99.90;;;;;;4931634;29;20500;-80
2023/06/08 05:12:23;;;;;;;16.60;15.70;;;19.50;99.90;;;;;;4927037;29;20458;-79
2023/06/08 05:14:51;;;;;;;15.77;14.67;;;20.10;99.90;;;;;;4931742;29;20869;-80
2023/06/08 05:17:18;;;;;;;14.97;14.17;;;21.10;99.90;;;;;;4933118;29;20441;-80
2023/06/08 05:19:44;;;;;;;15.50;14.80;;;21.80;99.90;;;;;;4935851;29;20773;-82
2023/06/08 05:22:11;;;;;;;15.43;14.73;;;22.40;98.20;;;;;;4938372;29;20529;-82
2023/06/08 05:24:38;;;;;;;15.70;14.80;;;22.80;97.30;;;;;;4936096;29;20468;-81
2023/06/08 05:27:05;;;;;;;15.00;14.20;;;23.00;96.10;;;;;;4935919;29;20459;-81
2023/06/08 05:29:32;;;;;;;15.50;14.70;;;23.10;96.00;;;;;;4935573;29;20622;-81
2023/06/08 05:32:01;;;;;;;15.40;14.60;;;23.50;95.20;;;;;;4935542;29;20540;-80
2023/06/08 05:34:27;;;;;;;15.33;14.40;;;23.60;94.60;;;;;;4935365;29;20544;-78
2023/06/08 05:36:54;;;;;;;15.30;14.50;;;23.80;94.30;;;;;;4935707;29;20449;-78
2023/06/08 05:39:21;;;;;;;15.43;14.63;;;24.20;93.80;;;;;;4936430;29;20507;-78
2023/06/08 05:41:48;;;;;;;15.23;14.50;;;24.30;92.80;;;;;;4936528;29;20855;-80
2023/06/08 05:44:15;;;;;;;14.23;13.53;;;24.50;92.20;;;;;;4936579;29;20849;-81
2023/06/08 05:46:41;;;;;;;14.80;14.10;;;24.60;92.10;;;;;;4936067;29;20951;-81
2023/06/08 05:49:10;;;;;;;15.20;14.40;;;24.60;92.00;;;;;;4936536;29;20449;-81
2023/06/08 05:51:37;;;;;;;15.40;14.50;;;24.70;91.60;;;;;;4936479;29;20473;-81
2023/06/08 05:54:04;;;;;;;15.17;14.47;;;25.00;90.90;;;;;;4936750;29;20492;-82
2023/06/08 05:56:32;;;;;;;14.70;14.00;;;25.30;90.40;;;;;;4936302;29;20485;-82
2023/06/08 05:58:59;;;;;;;15.33;14.53;;;25.30;90.40;;;;;;4936144;29;20528;-82
2023/06/08 06:01:27;;;;;;;14.57;13.90;;;25.70;89.70;;;;;;4936087;29;21192;-82
2023/06/08 06:03:54;;;;;;;14.70;14.00;;;25.70;90.00;;;;;;4935989;29;20798;-81
2023/06/08 06:06:22;;;;;;;14.70;14.00;;;25.90;88.10;;;;;;4935562;29;20820;-82
2023/06/08 06:08:49;;;;;;;14.00;13.30;;;26.60;87.80;;;;;;4936202;29;20441;-82
2023/06/08 06:11:16;;;;;;;14.90;14.10;;;26.00;88.00;;;;;;4935944;29;20461;-82
2023/06/08 06:13:43;;;;;;;14.10;13.50;;;26.10;86.30;;;;;;4934735;29;20465;-77
2023/06/08 06:16:10;;;;;;;14.43;13.63;;;26.20;86.90;;;;;;4935481;29;20606;-84
2023/06/08 06:18:36;;;;;;;14.00;13.30;;;25.90;87.10;;;;;;4935581;29;20489;-82
2023/06/08 06:21:03;;;;;;;14.17;13.27;;;25.70;87.80;;;;;;4935040;29;21003;-78
2023/06/08 06:23:31;;;;;;;14.40;13.60;;;25.60;88.30;;;;;;4935017;29;20450;-77
2023/06/08 06:25:58;;;;;;;14.60;13.80;;;25.90;87.80;;;;;;4934952;29;20450;-81
2023/06/08 06:28:25;;;;;;;14.77;13.87;;;26.20;86.60;;;;;;4933762;29;20496;-80
2023/06/08 06:30:51;;;;;;;15.20;14.37;;;26.80;84.60;;;;;;4934747;29;20485;-76
2023/06/08 06:33:18;;;;;;;14.93;13.90;;;27.40;82.80;;;;;;4929039;29;20835;-77
2023/06/08 06:35:45;;;;;;;14.17;13.43;;;27.50;81.80;;;;;;4934661;29;20947;-85
2023/06/08 06:38:11;;;;;;;13.43;12.77;;;27.60;81.20;;;;;;4934248;29;20477;-81
2023/06/08 06:40:40;;;;;;;14.30;13.60;;;28.00;80.00;;;;;;4934558;29;20816;-83
2023/06/08 06:43:06;;;;;;;14.53;13.83;;;28.30;79.10;;;;;;4934554;29;20512;-76
2023/06/08 06:45:33;;;;;;;14.33;13.60;;;28.90;76.50;;;;;;4934834;29;20449;-80
2023/06/08 06:48:00;;;;;;;13.57;12.97;;;29.00;75.70;;;;;;4934892;29;20512;-81
2023/06/08 06:50:27;;;;;;;14.03;13.43;;;29.20;76.50;;;;;;4934577;29;20453;-83
2023/06/08 06:52:53;;;;;;;14.43;13.73;;;29.80;74.30;;;;;;4934304;29;20472;-82
2023/06/08 06:55:20;;;;;;;14.13;13.43;;;30.30;72.00;;;;;;4934831;29;21008;-82
2023/06/08 06:57:48;;;;;;;15.17;14.37;;;30.60;69.90;;;;;;4934610;29;20449;-81
2023/06/08 07:00:16;;;;;;;14.33;13.73;;;30.50;70.20;;;;;;4934436;29;20452;-81
2023/06/08 07:02:42;;;;;;;14.60;13.90;;;30.70;69.90;;;;;;4934640;29;20718;-82
2023/06/08 07:05:10;;;;;;;15.37;14.63;;;29.80;71.40;;;;;;4934360;29;20939;-80
2023/06/08 07:07:37;;;;;;;15.30;14.50;;;29.40;73.10;;;;;;4934739;29;20462;-81
2023/06/08 07:10:04;;;;;;;14.50;13.80;;;29.60;73.50;;;;;;4934322;29;20869;-81
2023/06/08 07:12:30;;;;;;;14.73;13.80;;;29.60;73.70;;;;;;4934461;29;20449;-78
2023/06/08 07:14:58;;;;;;;15.63;14.47;;;29.60;74.20;;;;;;4934170;29;20477;-82
2023/06/08 07:17:25;;;;;;;14.43;13.83;;;30.10;72.50;;;;;;4934125;29;20445;-82
2023/06/08 07:19:53;;;;;;;14.00;13.30;;;30.20;71.20;;;;;;4934281;29;20630;-81
2023/06/08 07:22:19;;;;;;;15.30;14.60;;;30.50;72.20;;;;;;4933770;29;20939;-79
2023/06/08 07:24:46;;;;;;;14.57;13.87;;;30.80;71.10;;;;;;4933866;29;20446;-82
2023/06/08 07:27:13;;;;;;;13.97;13.37;;;31.30;71.00;;;;;;4933568;29;21003;-82
2023/06/08 07:29:39;;;;;;;14.50;13.80;;;31.40;70.00;;;;;;4933668;29;20480;-83
2023/06/08 07:32:11;;;;;;;14.70;14.10;;;31.60;66.50;;;;;;4934734;29;20545;-82
2023/06/08 07:34:37;;;;;;;13.67;13.07;;;31.90;63.30;;;;;;4933994;29;20446;-80
2023/06/08 07:37:05;;;;;;;14.93;14.13;;;32.20;62.90;;;;;;4931988;29;20939;-77
2023/06/08 07:39:31;;;;;;;14.80;14.10;;;32.60;62.00;;;;;;4932274;29;20552;-79
2023/06/08 07:41:58;;;;;;;14.13;13.53;;;32.90;60.10;;;;;;4933349;29;20470;-78
2023/06/08 07:44:25;;;;;;;14.07;13.47;;;33.00;59.70;;;;;;4933383;29;20449;-78
2023/06/08 07:46:52;;;;;;;13.90;13.40;;;32.20;60.50;;;;;;4933562;29;20830;-79
2023/06/08 07:49:20;;;;;;;13.77;13.23;;;31.90;61.80;;;;;;4933451;29;20460;-80
2023/06/08 07:51:46;;;;;;;15.33;14.20;;;32.50;59.70;;;;;;4929876;29;20454;-78
2023/06/08 07:54:14;;;;;;;14.37;13.77;;;33.10;58.80;;;;;;4923481;29;20445;-79
2023/06/08 07:56:41;;;;;;;14.50;13.90;;;33.60;58.50;;;;;;4925550;29;20660;-78
2023/06/08 07:59:07;;;;;;;15.40;14.70;;;33.90;63.80;;;;;;4914233;29;20498;-77
2023/06/08 08:01:34;;;;;;;16.13;15.43;;;34.50;63.50;;;;;;4926807;29;20509;-77
2023/06/08 08:04:01;;;;;;;14.80;14.23;;;34.70;63.00;;;;;;4932989;29;20461;-77
2023/06/08 08:06:29;;;;;;;15.70;15.00;;;34.80;65.90;;;;;;4932990;29;20465;-78
2023/06/08 08:08:56;;;;;;;15.30;14.50;;;35.10;60.10;;;;;;4929488;29;20517;-78
2023/06/08 08:11:23;;;;;;;15.10;14.40;;;34.80;60.50;;;;;;4914262;29;20466;-78
2023/06/08 08:13:50;;;;;;;14.80;14.10;;;34.30;61.30;;;;;;4913651;29;20462;-78
2023/06/08 08:16:16;;;;;;;15.50;14.67;;;34.10;61.40;;;;;;4913955;29;21181;-78
2023/06/08 08:18:43;;;;;;;15.60;15.00;;;33.50;60.70;;;;;;4913774;29;21062;-77
2023/06/08 08:21:10;;;;;;;14.80;14.10;;;33.60;60.70;;;;;;4913936;29;20481;-78
2023/06/08 08:23:38;;;;;;;16.47;15.47;;;33.40;59.10;;;;;;4913963;29;20948;-76
2023/06/08 08:26:05;;;;;;;13.83;13.30;;;33.90;58.50;;;;;;4917771;29;20477;-77
2023/06/08 08:28:33;;;;;;;14.70;14.00;;;34.40;57.70;;;;;;4932475;29;20492;-77
2023/06/08 08:31:00;;;;;;;14.80;14.20;;;34.90;56.70;;;;;;4932400;29;20485;-78
2023/06/08 08:33:28;;;;;;;14.27;13.70;;;35.40;56.40;;;;;;4932658;29;21088;-78
2023/06/08 08:35:55;;;;;;;15.10;14.37;;;34.90;55.60;;;;;;4932516;29;20504;-78
2023/06/08 08:38:22;;;;;;;15.37;14.77;;;35.10;56.40;;;;;;4932679;29;20461;-76
2023/06/08 08:40:52;;;;;;;15.33;14.73;;;35.40;56.00;;;;;;4932860;29;20468;-78
2023/06/08 08:43:30;;;;;;;15.60;14.90;;;35.00;55.80;;;;;;4932355;29;20524;-78
2023/06/08 08:46:00;;;;;;;16.20;15.50;;;35.00;55.80;;;;;;4932224;29;20464;-78
2023/06/08 08:48:29;;;;;;;15.57;14.77;;;34.90;54.80;;;;;;4932498;29;20496;-78
2023/06/08 08:50:58;;;;;;;16.00;15.30;;;34.90;55.90;;;;;;4931836;29;20464;-77
2023/06/08 08:53:27;;;;;;;14.90;14.30;;;35.00;56.20;;;;;;4913454;29;20466;-77
2023/06/08 08:55:56;;;;;;;14.80;14.10;;;34.10;57.20;;;;;;4928215;29;20966;-78
2023/06/08 08:58:23;;;;;;;15.80;15.20;;;33.70;57.80;;;;;;4926707;29;20792;-77
2023/06/08 09:00:50;;;;;;;15.83;15.13;;;35.30;58.50;;;;;;4931641;29;20481;-77
2023/06/08 09:03:17;;;;;;;15.57;14.67;;;34.90;57.70;;;;;;4931510;29;20717;-76
2023/06/08 09:05:44;;;;;;;15.90;15.17;;;34.70;58.40;;;;;;4931586;29;20442;-76
2023/06/08 09:08:11;;;;;;;17.03;16.33;;;34.40;58.80;;;;;;4931077;29;20472;-77
2023/06/08 09:10:38;;;;;;;16.97;16.27;;;34.80;58.90;;;;;;4931486;29;20954;-78
2023/06/08 09:13:07;;;;;;;17.73;16.63;;;35.30;58.50;;;;;;4931399;29;20453;-77
2023/06/08 09:15:37;;;;;;;16.33;15.50;;;35.00;58.00;;;;;;4931394;29;20516;-77
2023/06/08 09:18:16;;;;;;;18.10;17.40;;;35.30;57.70;;;;;;4926987;29;20453;-78
2023/06/08 09:20:43;;;;;;;16.30;15.33;;;35.70;58.10;;;;;;4926325;29;20489;-77
2023/06/08 09:23:15;;;;;;;16.07;15.17;;;35.50;57.30;;;;;;4931296;29;20454;-77
2023/06/08 09:25:42;;;;;;;15.43;14.80;;;35.80;56.60;;;;;;4931312;29;20489;-77
2023/06/08 09:28:18;;;;;;;16.97;16.37;;;35.70;72.70;;;;;;4931361;29;20984;-77
2023/06/08 09:30:48;;;;;;;15.70;15.00;;;36.00;70.50;;;;;;4926550;29;20854;-77
2023/06/08 09:33:21;;;;;;;16.27;15.57;;;36.40;77.50;;;;;;4931443;29;20460;-77
2023/06/08 09:35:49;;;;;;;17.00;16.30;;;35.80;73.50;;;;;;4927636;29;20532;-77
2023/06/08 09:38:18;;;;;;;17.57;16.67;;;36.30;76.90;;;;;;4931324;29;20465;-78
2023/06/08 09:40:46;;;;;;;15.80;15.10;;;36.20;71.90;;;;;;4931241;29;20488;-77
2023/06/08 09:43:12;;;;;;;16.07;15.47;;;36.00;70.00;;;;;;4930779;29;21105;-77
2023/06/08 09:45:45;;;;;;;16.70;16.00;;;35.90;68.50;;;;;;4931421;29;20438;-77
2023/06/08 09:48:13;;;;;;;16.60;15.80;;;36.10;69.40;;;;;;4931195;29;20828;-77
2023/06/08 09:50:42;;;;;;;16.20;15.50;;;35.60;71.20;;;;;;4931163;29;20441;-77
2023/06/08 09:53:09;;;;;;;15.43;14.83;;;35.60;76.70;;;;;;4931292;29;20841;-78
2023/06/08 09:55:37;;;;;;;17.23;16.53;;;36.00;73.70;;;;;;4931391;29;20513;-77
2023/06/08 09:58:05;;;;;;;16.20;15.60;;;35.60;78.10;;;;;;4926463;29;20463;-77
2023/06/08 10:00:35;;;;;;;16.40;15.70;;;36.00;72.80;;;;;;4931192;29;21006;-77
2023/06/08 10:03:14;;;;;;;16.80;16.13;;;36.10;74.70;;;;;;4932289;29;20484;-77
2023/06/08 10:05:44;;;;;;;16.70;16.00;;;37.00;74.30;;;;;;4933708;29;20821;-77
2023/06/08 10:08:16;;;;;;;17.70;16.67;;;36.60;70.70;;;;;;4934720;29;20442;-77
2023/06/08 10:10:43;;;;;;;18.07;17.27;;;36.80;70.80;;;;;;4934631;29;20452;-78
2023/06/08 10:13:11;;;;;;;16.90;16.20;;;37.00;71.20;;;;;;4934573;29;20450;-77
2023/06/08 10:15:38;;;;;;;18.10;17.40;;;37.50;64.30;;;;;;4934679;29;20464;-77
2023/06/08 10:18:06;;;;;;;18.73;18.03;;;37.30;66.40;;;;;;4934743;29;20460;-78
2023/06/08 10:20:35;;;;;;;17.13;16.47;;;37.80;66.00;;;;;;4934419;29;20484;-77
2023/06/08 10:23:03;;;;;;;18.00;17.13;;;38.00;66.40;;;;;;4934316;29;20449;-76
2023/06/08 10:25:31;;;;;;;18.10;17.30;;;37.40;65.70;;;;;;4934575;29;20466;-75
2023/06/08 10:28:04;;;;;;;17.90;16.70;;;37.20;66.60;;;;;;4934441;29;20733;-77
2023/06/08 10:30:39;;;;;;;17.60;16.80;;;37.90;64.80;;;;;;4934708;29;20844;-76
2023/06/08 10:33:11;;;;;;;17.70;17.00;;;37.70;65.20;;;;;;4934858;29;20974;-76
2023/06/08 10:35:40;;;;;;;18.50;17.70;;;38.10;64.70;;;;;;4934224;29;20462;-76
2023/06/08 10:38:11;;;;;;;18.13;17.40;;;38.10;64.80;;;;;;4934608;29;20457;-77
2023/06/08 10:40:46;;;;;;;18.10;17.40;;;37.70;65.80;;;;;;4934574;29;20497;-76
2023/06/08 10:43:13;;;;;;;18.23;17.43;;;37.00;65.70;;;;;;4934221;29;20488;-76
2023/06/08 10:45:41;;;;;;;19.83;18.93;;;36.90;66.30;;;;;;4934505;29;20460;-75
2023/06/08 10:48:11;;;;;;;19.23;18.43;;;36.90;66.50;;;;;;4934810;29;20453;-76
2023/06/08 10:50:38;;;;;;;19.60;18.60;;;37.80;65.70;;;;;;4934356;29;20816;-76
2023/06/08 10:53:05;;;;;;;18.53;17.70;;;37.40;66.10;;;;;;4934539;29;20458;-76
2023/06/08 10:55:32;;;;;;;19.70;18.90;;;36.70;66.20;;;;;;4934093;29;20465;-76
2023/06/08 10:58:06;;;;;;;20.97;19.93;;;36.60;66.40;;;;;;4934185;29;20464;-76
2023/06/08 11:00:45;;;;;;;18.57;17.70;;;36.90;67.30;;;;;;4934300;29;20532;-76
2023/06/08 11:03:16;;;;;;;19.20;18.30;;;37.80;66.80;;;;;;4933422;29;20935;-76
2023/06/08 11:05:44;;;;;;;20.03;19.27;;;37.80;68.10;;;;;;4933515;29;20688;-76
2023/06/08 11:08:12;;;;;;;19.90;19.00;;;37.40;69.40;;;;;;4933697;29;20532;-77
2023/06/08 11:10:40;;;;;;;19.50;18.80;;;38.00;68.80;;;;;;4933828;29;20452;-76
2023/06/08 11:13:08;;;;;;;20.77;19.97;;;38.60;67.80;;;;;;4933590;29;20441;-76
2023/06/08 11:15:37;;;;;;;19.33;18.53;;;38.40;65.40;;;;;;4932991;29;20484;-76
2023/06/08 11:18:05;;;;;;;18.80;17.93;;;37.30;67.50;;;;;;4933570;29;20540;-76
2023/06/08 11:20:33;;;;;;;20.33;19.43;;;37.30;67.50;;;;;;4933183;29;20488;-76
2023/06/08 11:23:02;;;;;;;19.83;19.03;;;37.00;67.30;;;;;;4933178;29;20452;-77
2023/06/08 11:25:30;;;;;;;18.33;17.53;;;36.70;68.00;;;;;;4933088;29;20646;-76
2023/06/08 11:27:57;;;;;;;19.50;18.70;;;37.60;67.00;;;;;;4933108;29;20861;-77
2023/06/08 11:30:27;;;;;;;19.87;18.90;;;37.80;66.50;;;;;;4933037;29;20480;-77
2023/06/08 11:32:55;;;;;;;18.57;17.77;;;38.90;66.60;;;;;;4933281;29;20508;-77
2023/06/08 11:35:24;;;;;;;19.70;18.97;;;39.50;67.80;;;;;;4933384;29;20475;-77
2023/06/08 11:37:56;;;;;;;19.43;18.63;;;39.90;69.80;;;;;;4933012;29;20905;-77
2023/06/08 11:40:23;;;;;;;19.60;18.80;;;39.20;69.90;;;;;;4933137;29;20559;-77
2023/06/08 11:42:52;;;;;;;19.83;18.77;;;38.50;71.20;;;;;;4932984;29;20449;-78
2023/06/08 11:45:20;;;;;;;19.50;18.60;;;37.60;72.10;;;;;;4932750;29;20524;-77
2023/06/08 11:47:47;;;;;;;18.60;17.80;;;36.30;73.00;;;;;;4926945;29;20462;-75
2023/06/08 11:50:16;;;;;;;17.57;16.87;;;35.20;73.80;;;;;;4933284;29;20445;-76
2023/06/08 11:52:42;;;;;;;19.00;18.20;;;34.80;74.20;;;;;;4933256;29;21025;-77
2023/06/08 11:55:13;;;;;;;18.43;17.53;;;35.50;74.20;;;;;;4933436;29;20453;-76
2023/06/08 11:57:41;;;;;;;18.63;17.73;;;35.70;73.30;;;;;;4932983;29;20923;-76
2023/06/08 12:00:11;;;;;;;18.40;17.60;;;36.70;72.20;;;;;;4911678;29;20482;-76
2023/06/08 12:02:39;;;;;;;18.03;17.23;;;35.30;70.60;;;;;;4905081;29;20493;-77
2023/06/08 12:05:07;;;;;;;18.13;17.37;;;34.10;71.30;;;;;;4920010;29;20461;-76
2023/06/08 12:07:34;;;;;;;18.70;17.77;;;33.10;74.30;;;;;;4932732;29;20548;-77
2023/06/08 12:10:02;;;;;;;17.80;17.00;;;32.40;75.30;;;;;;4931760;29;20449;-77
2023/06/08 12:12:31;;;;;;;17.93;16.50;;;32.00;77.60;;;;;;4908455;29;20937;-75
2023/06/08 12:14:59;;;;;;;18.80;17.90;;;31.20;79.20;;;;;;4902392;29;20440;-77
2023/06/08 12:17:27;;;;;;;17.77;16.87;;;30.80;79.00;;;;;;4902555;29;20459;-76
2023/06/08 12:19:54;;;;;;;16.40;15.60;;;30.60;80.50;;;;;;4903889;29;20482;-77
2023/06/08 12:22:21;;;;;;;17.30;16.60;;;30.30;82.00;;;;;;4902409;29;20902;-77
2023/06/08 12:24:48;;;;;;;16.87;16.07;;;29.10;51.20;;;;;;4902727;29;20534;-77
2023/06/08 12:27:15;;;;;;;19.67;17.87;;;29.00;51.90;;;;;;4903575;29;20458;-77
2023/06/08 12:29:43;;;;;;;19.53;16.70;;;27.50;57.30;;;;;;4901875;29;20582;-77
2023/06/08 12:32:10;;;;;;;19.97;18.20;;;25.30;62.60;;;;;;4903054;29;20454;-80
2023/06/08 12:34:37;;;;;;;18.60;17.50;;;23.90;73.30;;;;;;4904131;29;20864;-75
2023/06/08 12:37:04;;;;;;;16.03;15.13;;;23.10;72.20;;;;;;4902800;29;20454;-79
2023/06/08 12:39:31;;;;;;;17.93;16.33;;;22.50;75.00;;;;;;4902398;29;20449;-77
2023/06/08 12:41:59;;;;;;;17.67;16.27;;;22.20;79.30;;;;;;4903957;29;20581;-78
2023/06/08 12:44:26;;;;;;;18.43;17.23;;;21.90;91.00;;;;;;4903404;29;20462;-78
2023/06/08 12:46:54;;;;;;;34.13;32.23;;;21.60;98.50;;;;;;4902869;29;20585;-76
2023/06/08 12:49:22;;;;;;;33.80;31.70;;;21.10;99.50;;;;;;4902145;29;20899;-74
2023/06/08 12:51:49;;;;;;;41.53;38.13;;;20.50;99.90;;;;;;4902201;29;20530;-71
2023/06/08 12:54:15;;;;;;;45.70;42.10;;;20.00;99.90;;;;;;4903550;29;20461;-72
2023/06/08 12:56:42;;;;;;;51.40;46.20;;;19.50;99.90;;;;;;4902242;29;20455;-71
2023/06/08 12:59:09;;;;;;;51.27;46.43;;;19.40;99.90;;;;;;4902255;29;20972;-72
2023/06/08 13:01:36;;;;;;;48.30;44.30;;;19.20;99.90;;;;;;4903532;29;21055;-71
2023/06/08 13:04:04;;;;;;;49.97;45.57;;;19.00;99.90;;;;;;4902295;29;20444;-73
2023/06/08 13:06:31;;;;;;;48.40;44.30;;;18.90;99.90;;;;;;4901625;29;20489;-72
2023/06/08 13:08:58;;;;;;;47.83;44.13;;;18.80;99.90;;;;;;4903095;29;20546;-73
2023/06/08 13:11:24;;;;;;;47.57;43.70;;;18.60;99.90;;;;;;4901925;29;20443;-73
2023/06/08 13:13:51;;;;;;;48.43;44.33;;;18.60;99.90;;;;;;4901666;29;20450;-73
2023/06/08 13:16:18;;;;;;;47.07;43.67;;;18.50;99.90;;;;;;4903275;29;20558;-72
2023/06/08 13:18:44;;;;;;;48.23;44.33;;;18.40;99.90;;;;;;4902214;29;20451;-71
2023/06/08 13:21:13;;;;;;;45.93;42.47;;;18.50;99.90;;;;;;4901435;29;21022;-71
2023/06/08 13:23:39;;;;;;;47.83;44.27;;;18.40;99.90;;;;;;4900816;29;20447;-74
2023/06/08 13:26:06;;;;;;;47.37;43.63;;;18.30;99.90;;;;;;4902634;29;20469;-72
2023/06/08 13:28:33;;;;;;;46.10;42.90;;;18.10;99.90;;;;;;4901009;29;20475;-73
2023/06/08 13:31:00;;;;;;;45.10;42.10;;;18.00;99.90;;;;;;4902543;29;20904;-72
2023/06/08 13:33:27;;;;;;;43.57;40.47;;;17.90;99.90;;;;;;4900300;29;20466;-72
2023/06/08 13:35:54;;;;;;;45.60;42.40;;;17.90;99.90;;;;;;4903240;29;20900;-73
2023/06/08 13:38:21;;;;;;;44.13;41.13;;;18.00;99.90;;;;;;4889941;29;20494;-73
2023/06/08 13:40:50;;;;;;;44.50;40.47;;;18.00;99.90;;;;;;4896840;29;20491;-71
2023/06/08 13:43:17;;;;;;;47.07;43.70;;;18.20;99.90;;;;;;4896156;29;20774;-72
2023/06/08 13:45:44;;;;;;;46.87;43.77;;;18.40;99.90;;;;;;4907889;29;20710;-73
2023/06/08 13:48:11;;;;;;;43.80;40.70;;;18.30;99.90;;;;;;4904249;29;20451;-72
2023/06/08 13:50:38;;;;;;;42.23;39.20;;;18.30;99.90;;;;;;4905962;29;20937;-72
2023/06/08 13:53:04;;;;;;;43.53;40.40;;;18.30;99.90;;;;;;4906125;29;20447;-74
2023/06/08 13:55:32;;;;;;;41.07;38.47;;;18.20;99.90;;;;;;4904332;29;20964;-72
2023/06/08 13:57:59;;;;;;;43.63;40.83;;;18.00;99.90;;;;;;4905468;29;20454;-72
2023/06/08 14:00:27;;;;;;;40.50;38.10;;;18.20;99.90;;;;;;4905833;29;20610;-72
2023/06/08 14:02:54;;;;;;;41.33;38.90;;;18.20;99.90;;;;;;4904579;29;20465;-72
2023/06/08 14:08:16;;;;;;;44.87;41.77;;;18.40;99.90;;;;;;5135790;27;20458;-73
2023/06/08 14:10:42;;;;;;;38.90;36.70;;;18.30;99.90;;;;;;5115622;28;20437;-72
2023/06/08 14:13:09;;;;;;;34.53;32.67;;;18.40;99.90;;;;;;5116634;28;20452;-72
2023/06/08 14:15:36;;;;;;;34.97;32.33;;;18.50;99.90;;;;;;5115361;28;20444;-72
2023/06/08 14:18:03;;;;;;;32.57;30.40;;;18.50;99.90;;;;;;5115669;28;20452;-72
2023/06/08 14:20:33;;;;;;;30.03;28.50;;;18.60;99.90;;;;;;5116578;28;20444;-72
2023/06/08 14:23:00;;;;;;;33.93;31.93;;;18.50;99.90;;;;;;5115486;28;21265;-73
2023/06/08 14:25:28;;;;;;;34.23;32.43;;;18.60;99.90;;;;;;5114375;28;20440;-72
2023/06/08 14:27:56;;;;;;;35.13;33.23;;;18.60;99.90;;;;;;5111989;28;20485;-72
2023/06/08 14:30:23;;;;;;;31.60;29.90;;;18.70;99.90;;;;;;5094823;28;20441;-72
2023/06/08 14:32:51;;;;;;;29.80;28.20;;;18.70;99.90;;;;;;5096083;28;20490;-72
2023/06/08 14:35:18;;;;;;;32.53;30.63;;;18.90;99.90;;;;;;5094370;28;20450;-72
2023/06/08 14:37:44;;;;;;;31.07;29.40;;;19.10;99.90;;;;;;5094297;28;20438;-72
2023/06/08 14:40:12;;;;;;;29.10;27.30;;;19.40;99.90;;;;;;5095569;28;20452;-73
2023/06/08 14:42:40;;;;;;;28.90;27.20;;;19.60;99.90;;;;;;5094085;28;20450;-72
2023/06/08 14:45:08;;;;;;;23.10;21.80;;;19.90;99.90;;;;;;5094259;28;20838;-73
2023/06/08 14:47:36;;;;;;;20.00;18.90;;;20.30;99.90;;;;;;5093674;28;20478;-73
2023/06/08 14:50:03;;;;;;;19.23;18.13;;;20.60;99.90;;;;;;5094409;28;20449;-73
2023/06/08 14:52:30;;;;;;;20.17;18.87;;;21.00;99.90;;;;;;5095750;28;20445;-74
2023/06/08 14:54:56;;;;;;;19.50;18.30;;;21.40;99.90;;;;;;5094128;28;20762;-72
2023/06/08 14:57:23;;;;;;;20.03;18.90;;;21.60;99.90;;;;;;5094580;28;20441;-72
2023/06/08 14:59:51;;;;;;;18.57;17.47;;;21.60;99.90;;;;;;5095883;28;20438;-74
2023/06/08 15:02:18;;;;;;;17.63;16.27;;;21.70;99.90;;;;;;5093999;28;20939;-73
2023/06/08 15:04:44;;;;;;;18.73;17.23;;;21.90;99.90;;;;;;5093762;28;20529;-72
2023/06/08 15:07:11;;;;;;;16.70;15.70;;;22.10;99.90;;;;;;5094829;28;20469;-71
2023/06/08 15:09:38;;;;;;;17.67;16.47;;;22.20;99.90;;;;;;5094066;28;20439;-72
2023/06/08 15:12:06;;;;;;;17.17;15.97;;;22.50;99.90;;;;;;5094206;28;20455;-73
2023/06/08 15:14:32;;;;;;;18.27;17.00;;;22.60;99.90;;;;;;5094915;28;20449;-73
2023/06/08 15:17:01;;;;;;;17.30;16.40;;;22.60;99.90;;;;;;5093676;28;20438;-72
2023/06/08 15:19:28;;;;;;;18.00;16.53;;;22.70;99.90;;;;;;5079818;28;20709;-73
2023/06/08 15:21:54;;;;;;;17.53;16.63;;;22.60;99.90;;;;;;5079739;28;20447;-73
2023/06/08 15:24:21;;;;;;;17.93;16.90;;;22.40;99.90;;;;;;5080828;28;20438;-72
2023/06/08 15:26:48;;;;;;;20.23;19.00;;;22.70;99.90;;;;;;5081232;28;20475;-72
2023/06/08 15:29:15;;;;;;;19.43;18.23;;;22.80;99.90;;;;;;5079262;28;20527;-72
2023/06/08 15:31:41;;;;;;;18.53;17.47;;;22.80;99.90;;;;;;5080414;28;20447;-73
2023/06/08 15:34:10;;;;;;;17.60;16.70;;;23.00;99.90;;;;;;5081756;28;20515;-72
2023/06/08 15:36:37;;;;;;;17.90;16.87;;;23.00;99.90;;;;;;5079749;28;20439;-72
2023/06/08 15:39:04;;;;;;;18.40;17.20;;;23.10;99.90;;;;;;5080226;28;20443;-73
2023/06/08 15:41:31;;;;;;;19.43;18.20;;;23.30;99.90;;;;;;5080621;28;20450;-72
2023/06/08 15:43:58;;;;;;;18.43;17.30;;;23.60;99.90;;;;;;5079681;28;20644;-72
2023/06/08 15:46:25;;;;;;;19.10;18.00;;;23.40;99.90;;;;;;5079424;28;20482;-72
2023/06/08 15:48:54;;;;;;;19.67;18.67;;;23.50;99.90;;;;;;5081361;28;20438;-72
2023/06/08 15:51:28;;;;;;;17.57;16.67;;;23.80;99.90;;;;;;5080313;28;20455;-73
2023/06/08 15:53:55;;;;;;;18.93;17.83;;;23.90;99.90;;;;;;5080098;28;20492;-72
2023/06/08 15:56:22;;;;;;;20.80;19.30;;;24.00;99.90;;;;;;5079942;28;20442;-73
2023/06/08 15:58:50;;;;;;;19.70;18.60;;;24.00;99.90;;;;;;5079073;28;20999;-73
2023/06/08 16:01:16;;;;;;;20.43;18.90;;;24.00;99.90;;;;;;5080202;28;20495;-73